Time;durP1;ratioP1;P1;durP2;ratioP2;P2;SDS_P1;SDS_P2;PMS_P1;PMS_P2;Temp;Humidity;BMP_temperature;BMP_pressure;BME280_temperature;BME280_humidity;BME280_pressure;Samples;Min_cycle;Max_cycle;Signal;HPM_P1;HPM_P2
2021/04/11 00:00:47;;;;;;;3.70;3.00;;;;;;;;;;5084383;28;20240;-67
2021/04/11 00:03:14;;;;;;;3.40;3.10;;;;;;;;;;5079394;28;20210;-67
2021/04/11 00:05:40;;;;;;;4.27;3.03;;;;;;;;;;5076374;28;20219;-65
2021/04/11 00:08:06;;;;;;;4.00;3.20;;;;;;;;;;5083430;28;20212;-67
2021/04/11 00:10:35;;;;;;;4.10;3.47;;;;;;;;;;5075583;28;20567;-68
2021/04/11 00:13:02;;;;;;;4.27;3.10;;;;;;;;;;5076817;28;20178;-68
2021/04/11 00:15:27;;;;;;;3.57;3.13;;;;;;;;;;5076997;28;20200;-69
2021/04/11 00:17:52;;;;;;;4.00;3.40;;;;;;;;;;5081200;28;20180;-67
2021/04/11 00:20:17;;;;;;;3.80;3.30;;;;;;;;;;5085717;28;20224;-66
2021/04/11 00:22:46;;;;;;;4.53;3.83;;;;;;;;;;5087739;28;20638;-66
2021/04/11 00:25:12;;;;;;;4.40;3.87;;;;;;;;;;5078193;28;20197;-66
2021/04/11 00:27:38;;;;;;;5.83;4.13;;;;;;;;;;5085741;28;20185;-66
2021/04/11 00:30:04;;;;;;;5.50;3.90;;;;;;;;;;5091010;28;20179;-70
2021/04/11 00:32:29;;;;;;;4.20;3.73;;;;;;;;;;5085245;28;20233;-68
2021/04/11 00:34:54;;;;;;;4.93;3.93;;;;;;;;;;5082562;28;20271;-66
2021/04/11 00:37:19;;;;;;;5.20;4.33;;;;;;;;;;5079373;28;20267;-67
2021/04/11 00:39:44;;;;;;;5.70;3.97;;;;;;;;;;5077655;28;20184;-66
2021/04/11 00:42:18;;;;;;;4.97;3.97;;;;;;;;;;5089274;28;20215;-66
2021/04/11 00:44:44;;;;;;;6.67;3.90;;;;;;;;;;5084509;28;20205;-67
2021/04/11 00:47:09;;;;;;;4.30;3.87;;;;;;;;;;5084781;28;20176;-66
2021/04/11 00:49:44;;;;;;;4.37;3.90;;;;;;;;;;5078055;28;20169;-67
2021/04/11 00:52:10;;;;;;;4.73;3.77;;;;;;;;;;5082099;28;20196;-67
2021/04/11 00:54:36;;;;;;;4.33;3.40;;;;;;;;;;5084292;28;20572;-66
2021/04/11 00:57:02;;;;;;;4.57;3.80;;;;;;;;;;5076139;28;20201;-66
2021/04/11 00:59:28;;;;;;;4.80;3.67;;;;;;;;;;5089525;28;20565;-67
2021/04/11 01:01:53;;;;;;;3.90;3.43;;;;;;;;;;5081840;28;20296;-67
2021/04/11 01:04:19;;;;;;;4.57;3.50;;;;;;;;;;5082325;28;20201;-67
2021/04/11 01:06:55;;;;;;;4.93;3.80;;;;;;;;;;5087101;28;20263;-65
2021/04/11 01:09:28;;;;;;;4.77;3.37;;;;;;;;;;5083918;28;20559;-67
2021/04/11 01:11:55;;;;;;;3.80;3.33;;;;;;;;;;5079157;28;20567;-67
2021/04/11 01:14:20;;;;;;;3.40;3.10;;;;;;;;;;5075474;28;20180;-67
2021/04/11 01:16:46;;;;;;;3.50;3.00;;;;;;;;;;5078701;28;20272;-66
2021/04/11 01:19:14;;;;;;;3.50;3.20;;;;;;;;;;5081606;28;20181;-66
2021/04/11 01:21:56;;;;;;;4.23;3.00;;;;;;;;;;5078417;28;20209;-66
2021/04/11 01:24:25;;;;;;;3.43;3.00;;;;;;;;;;5073449;28;20571;-66
2021/04/11 01:26:51;;;;;;;5.07;3.33;;;;;;;;;;5089106;28;20796;-67
2021/04/11 01:29:17;;;;;;;5.53;3.60;;;;;;;;;;5082228;28;20180;-66
2021/04/11 01:31:43;;;;;;;4.40;3.10;;;;;;;;;;5076086;28;20618;-66
2021/04/11 01:34:09;;;;;;;3.23;2.50;;;;;;;;;;5085272;28;20200;-67
2021/04/11 01:36:36;;;;;;;3.13;2.60;;;;;;;;;;5087801;28;20180;-67
2021/04/11 01:39:07;;;;;;;3.83;2.53;;;;;;;;;;5082284;28;20537;-66
2021/04/11 01:41:35;;;;;;;3.40;2.57;;;;;;;;;;5075242;28;20267;-65
2021/04/11 01:44:01;;;;;;;5.07;2.63;;;;;;;;;;5082840;28;20674;-67
2021/04/11 01:46:26;;;;;;;4.70;2.40;;;;;;;;;;5078936;28;20185;-67
2021/04/11 01:48:51;;;;;;;3.07;2.43;;;;;;;;;;5081137;28;20195;-67
2021/04/11 01:51:19;;;;;;;3.27;2.90;;;;;;;;;;5081533;28;20204;-65
2021/04/11 01:53:45;;;;;;;3.40;2.23;;;;;;;;;;5087675;28;20236;-68
2021/04/11 01:56:11;;;;;;;3.53;2.30;;;;;;;;;;5084801;28;20255;-66
2021/04/11 01:58:37;;;;;;;3.07;2.57;;;;;;;;;;5087973;28;20180;-66
2021/04/11 02:01:11;;;;;;;2.27;2.07;;;;;;;;;;5080215;28;20201;-67
2021/04/11 02:03:36;;;;;;;2.80;2.00;;;;;;;;;;5081386;28;20575;-66
2021/04/11 02:06:03;;;;;;;2.00;1.77;;;;;;;;;;5081888;28;20169;-67
2021/04/11 02:08:28;;;;;;;2.17;1.80;;;;;;;;;;5088395;28;20207;-67
2021/04/11 02:10:55;;;;;;;1.90;1.50;;;;;;;;;;5086572;28;20205;-67
2021/04/11 02:13:25;;;;;;;2.37;2.10;;;;;;;;;;5088071;28;20521;-67
2021/04/11 02:15:51;;;;;;;2.23;1.60;;;;;;;;;;5082296;28;20176;-69
2021/04/11 02:18:17;;;;;;;1.30;1.20;;;;;;;;;;5078965;28;20185;-69
2021/04/11 02:20:43;;;;;;;1.27;1.17;;;;;;;;;;5081734;28;20194;-67
2021/04/11 02:23:09;;;;;;;2.00;1.30;;;;;;;;;;5075209;28;20255;-69
2021/04/11 02:25:38;;;;;;;1.17;1.07;;;;;;;;;;5078436;28;20181;-68
2021/04/11 02:28:04;;;;;;;2.00;1.33;;;;;;;;;;5078739;28;20241;-68
2021/04/11 02:30:29;;;;;;;2.37;1.40;;;;;;;;;;5078061;28;20192;-66
2021/04/11 02:32:55;;;;;;;1.30;1.10;;;;;;;;;;5082597;28;20607;-66
2021/04/11 02:35:23;;;;;;;1.73;1.30;;;;;;;;;;5076186;28;20580;-66
2021/04/11 02:37:52;;;;;;;2.30;1.57;;;;;;;;;;5082539;28;20539;-66
2021/04/11 02:40:19;;;;;;;5.00;1.50;;;;;;;;;;5084121;28;20216;-66
2021/04/11 02:42:44;;;;;;;1.83;1.43;;;;;;;;;;5079476;28;20658;-67
2021/04/11 02:45:14;;;;;;;2.20;1.33;;;;;;;;;;5077944;28;20216;-68
2021/04/11 02:47:40;;;;;;;2.13;1.20;;;;;;;;;;5071077;28;20328;-67
2021/04/11 02:50:05;;;;;;;3.90;1.57;;;;;;;;;;5075660;28;20670;-68
2021/04/11 02:52:37;;;;;;;2.70;1.53;;;;;;;;;;5076618;28;20200;-68
2021/04/11 02:55:04;;;;;;;1.80;1.53;;;;;;;;;;5081091;28;20180;-67
2021/04/11 02:57:30;;;;;;;1.07;1.07;;;;;;;;;;5078756;28;20199;-68
2021/04/11 02:59:55;;;;;;;3.43;1.30;;;;;;;;;;5082310;28;20176;-68
2021/04/11 03:02:21;;;;;;;1.77;1.20;;;;;;;;;;5082591;28;20183;-67
2021/04/11 03:04:49;;;;;;;2.60;1.00;;;;;;;;;;5075076;28;20232;-68
2021/04/11 03:07:17;;;;;;;1.47;1.27;;;;;;;;;;5083348;28;20251;-68
2021/04/11 03:09:45;;;;;;;1.30;1.00;;;;;;;;;;5079517;28;20657;-68
2021/04/11 03:12:11;;;;;;;2.40;1.30;;;;;;;;;;5075877;28;20201;-68
2021/04/11 03:14:38;;;;;;;2.00;1.40;;;;;;;;;;5081568;28;20187;-69
2021/04/11 03:17:04;;;;;;;4.83;1.40;;;;;;;;;;5076018;28;20181;-68
2021/04/11 03:19:32;;;;;;;2.17;1.10;;;;;;;;;;5083456;28;20229;-68
2021/04/11 03:21:57;;;;;;;1.70;1.23;;;;;;;;;;5083345;28;20208;-68
2021/04/11 03:24:23;;;;;;;5.23;1.50;;;;;;;;;;5079441;28;20292;-67
2021/04/11 03:26:51;;;;;;;3.00;1.53;;;;;;;;;;5077734;28;20275;-67
2021/04/11 03:29:27;;;;;;;1.77;1.50;;;;;;;;;;5080353;28;20173;-66
2021/04/11 03:31:52;;;;;;;2.10;1.10;;;;;;;;;;5073966;28;20211;-68
2021/04/11 03:34:17;;;;;;;1.42;1.13;;;;;;;;;;5078365;28;20200;-67
2021/04/11 03:36:43;;;;;;;1.60;1.30;;;;;;;;;;5078575;28;20237;-68
2021/04/11 03:39:09;;;;;;;2.10;1.00;;;;;;;;;;5076298;28;20181;-68
2021/04/11 03:41:36;;;;;;;1.63;1.13;;;;;;;;;;5078013;28;20569;-68
2021/04/11 03:44:05;;;;;;;3.27;1.33;;;;;;;;;;5075802;28;20208;-67
2021/04/11 03:46:34;;;;;;;3.23;1.30;;;;;;;;;;5075159;28;20684;-68
2021/04/11 03:49:04;;;;;;;2.90;1.80;;;;;;;;;;5078079;28;20188;-67
2021/04/11 03:51:29;;;;;;;2.87;1.70;;;;;;;;;;5086798;28;20196;-68
2021/04/11 03:54:15;;;;;;;2.23;1.90;;;;;;;;;;5078922;28;20677;-68
2021/04/11 03:56:43;;;;;;;5.30;2.00;;;;;;;;;;5083255;28;20271;-68
2021/04/11 03:59:10;;;;;;;2.23;1.87;;;;;;;;;;5091589;28;20179;-67
2021/04/11 04:01:38;;;;;;;3.23;2.00;;;;;;;;;;5078664;28;20243;-67
2021/04/11 04:04:06;;;;;;;2.93;2.23;;;;;;;;;;5081029;28;20204;-67
2021/04/11 04:06:32;;;;;;;2.20;1.90;;;;;;;;;;5081607;28;20173;-66
2021/04/11 04:08:57;;;;;;;5.60;1.97;;;;;;;;;;5082750;28;20177;-66
2021/04/11 04:11:41;;;;;;;2.70;1.90;;;;;;;;;;5088952;28;20199;-68
2021/04/11 04:14:23;;;;;;;1.83;1.70;;;;;;;;;;5081102;28;20243;-67
2021/04/11 04:16:48;;;;;;;2.67;1.87;;;;;;;;;;5085203;28;20180;-67
2021/04/11 04:19:20;;;;;;;3.33;1.60;;;;;;;;;;5084064;28;20314;-67
2021/04/11 04:21:57;;;;;;;2.00;1.73;;;;;;;;;;5088956;28;20208;-68
2021/04/11 04:24:25;;;;;;;6.87;2.00;;;;;;;;;;5084459;28;20235;-67
2021/04/11 04:27:06;;;;;;;2.60;1.90;;;;;;;;;;5087522;28;20293;-67
2021/04/11 04:29:38;;;;;;;2.60;1.50;;;;;;;;;;5089822;28;20630;-67
2021/04/11 04:32:06;;;;;;;5.50;2.03;;;;;;;;;;5074614;28;20203;-67
2021/04/11 04:34:49;;;;;;;1.80;1.40;;;;;;;;;;5080640;28;20193;-67
2021/04/11 04:37:14;;;;;;;3.73;1.70;;;;;;;;;;5085985;28;20672;-68
2021/04/11 04:39:57;;;;;;;3.47;1.60;;;;;;;;;;5085772;28;20484;-68
2021/04/11 04:42:29;;;;;;;2.37;1.50;;;;;;;;;;5084699;28;20183;-67
2021/04/11 04:45:03;;;;;;;4.20;1.50;;;;;;;;;;5081968;28;20215;-68
2021/04/11 04:47:36;;;;;;;3.40;1.50;;;;;;;;;;5079852;28;20201;-67
2021/04/11 04:50:01;;;;;;;4.00;1.50;;;;;;;;;;5079907;28;20196;-68
2021/04/11 04:52:28;;;;;;;1.88;1.55;;;;;;;;;;5085529;28;20172;-67
2021/04/11 04:55:05;;;;;;;4.33;1.77;;;;;;;;;;5094570;28;20224;-67
2021/04/11 04:57:36;;;;;;;3.30;1.40;;;;;;;;;;5089808;28;20251;-68
2021/04/11 05:00:13;;;;;;;3.63;1.97;;;;;;;;;;5085345;28;20177;-68
2021/04/11 05:02:44;;;;;;;2.60;2.30;;;;;;;;;;5081075;28;20187;-67
2021/04/11 05:05:10;;;;;;;2.60;2.10;;;;;;;;;;5083459;28;20307;-66
2021/04/11 05:07:40;;;;;;;5.87;2.43;;;;;;;;;;5083946;28;20693;-66
2021/04/11 05:10:12;;;;;;;5.00;2.10;;;;;;;;;;5079023;28;20177;-66
2021/04/11 05:12:43;;;;;;;6.00;2.30;;;;;;;;;;5089053;28;20168;-67
2021/04/11 05:15:08;;;;;;;3.50;2.20;;;;;;;;;;5082448;28;20173;-66
2021/04/11 05:17:35;;;;;;;4.73;2.37;;;;;;;;;;5075219;28;20522;-67
2021/04/11 05:20:04;;;;;;;3.03;1.83;;;;;;;;;;5086827;28;20180;-66
2021/04/11 05:22:32;;;;;;;2.63;2.10;;;;;;;;;;5084287;28;20183;-67
2021/04/11 05:25:06;;;;;;;5.40;2.90;;;;;;;;;;5081912;28;20265;-67
2021/04/11 05:27:50;;;;;;;4.43;1.97;;;;;;;;;;5084420;28;20254;-67
2021/04/11 05:30:16;;;;;;;5.00;2.00;;;;;;;;;;5079661;28;20188;-67
2021/04/11 05:32:41;;;;;;;4.43;1.73;;;;;;;;;;5083729;28;20175;-68
2021/04/11 05:35:06;;;;;;;4.63;1.50;;;;;;;;;;5079659;28;20212;-66
2021/04/11 05:37:31;;;;;;;3.03;1.90;;;;;;;;;;5081978;28;20169;-66
2021/04/11 05:40:06;;;;;;;5.40;1.80;;;;;;;;;;5088822;28;20176;-68
2021/04/11 05:42:49;;;;;;;6.30;1.77;;;;;;;;;;5075471;28;20709;-68
2021/04/11 05:45:21;;;;;;;2.10;1.40;;;;;;;;;;5083699;28;20196;-68
2021/04/11 05:47:52;;;;;;;3.60;1.40;;;;;;;;;;5080040;28;20176;-68
2021/04/11 05:50:20;;;;;;;2.13;1.93;;;;;;;;;;5079216;28;20198;-68
2021/04/11 05:52:45;;;;;;;5.73;1.70;;;;;;;;;;5084682;28;20173;-68
2021/04/11 05:55:11;;;;;;;5.90;1.40;;;;;;;;;;5080908;28;20248;-68
2021/04/11 05:57:42;;;;;;;3.87;1.73;;;;;;;;;;5076088;28;20208;-67
2021/04/11 06:00:09;;;;;;;3.03;1.43;;;;;;;;;;5084352;28;20207;-68
2021/04/11 06:02:43;;;;;;;3.43;1.50;;;;;;;;;;5083302;28;20237;-68
2021/04/11 06:05:10;;;;;;;2.33;1.40;;;;;;;;;;5090055;28;20579;-68
2021/04/11 06:07:46;;;;;;;5.37;1.60;;;;;;;;;;5087212;28;20169;-67
2021/04/11 06:10:17;;;;;;;6.53;1.47;;;;;;;;;;5077004;28;20236;-68
2021/04/11 06:13:00;;;;;;;6.10;1.70;;;;;;;;;;5083598;28;20240;-68
2021/04/11 06:15:31;;;;;;;4.77;1.50;;;;;;;;;;5074701;28;20188;-67
2021/04/11 06:17:57;;;;;;;4.50;1.93;;;;;;;;;;5083244;28;20180;-67
2021/04/11 06:20:23;;;;;;;4.27;2.13;;;;;;;;;;5083010;28;20217;-68
2021/04/11 06:22:48;;;;;;;5.27;1.70;;;;;;;;;;5083292;28;20683;-67
2021/04/11 06:25:32;;;;;;;5.93;1.80;;;;;;;;;;5082215;28;20627;-65
2021/04/11 06:28:01;;;;;;;3.63;1.83;;;;;;;;;;5080269;28;20287;-66
2021/04/11 06:30:31;;;;;;;4.57;1.50;;;;;;;;;;5082854;28;20196;-65
2021/04/11 06:33:17;;;;;;;4.73;1.60;;;;;;;;;;5078364;28;20219;-68
2021/04/11 06:36:03;;;;;;;2.80;1.40;;;;;;;;;;5084748;28;20714;-68
2021/04/11 06:38:31;;;;;;;4.07;1.73;;;;;;;;;;5085988;28;20199;-65
2021/04/11 06:41:24;;;;;;;7.40;1.83;;;;;;;;;;5083260;28;20686;-66
2021/04/11 06:43:55;;;;;;;5.23;1.83;;;;;;;;;;5080644;28;20211;-66
2021/04/11 06:46:36;;;;;;;4.13;1.83;;;;;;;;;;5084572;28;20179;-64
2021/04/11 06:49:07;;;;;;;2.10;1.30;;;;;;;;;;5079579;28;20178;-66
2021/04/11 06:51:32;;;;;;;5.27;1.30;;;;;;;;;;5082659;28;20202;-65
2021/04/11 06:54:22;;;;;;;1.90;1.30;;;;;;;;;;5087041;28;20264;-67
2021/04/11 06:57:01;;;;;;;4.57;1.53;;;;;;;;;;5085489;28;20245;-67
2021/04/11 06:59:30;;;;;;;3.83;1.43;;;;;;;;;;5083289;28;20199;-68
2021/04/11 07:02:03;;;;;;;4.37;2.07;;;;;;;;;;5072364;28;20582;-68
2021/04/11 07:04:36;;;;;;;7.03;1.53;;;;;;;;;;5066404;28;20287;-67
2021/04/11 07:07:40;;;;;;;3.87;1.10;;;;;;;;;;5072268;28;20181;-68
2021/04/11 07:10:37;;;;;;;5.67;1.43;;;;;;;;;;5080485;28;20176;-68
2021/04/11 07:13:20;;;;;;;2.77;1.30;;;;;;;;;;5035940;28;20548;-67
2021/04/11 07:16:01;;;;;;;2.87;1.47;;;;;;;;;;5078312;28;20213;-66
2021/04/11 07:18:26;;;;;;;5.50;2.60;;;;;;;;;;5076628;28;20225;-67
2021/04/11 07:21:06;;;;;;;3.50;1.52;;;;;;;;;;5079263;28;20204;-67
2021/04/11 07:23:50;;;;;;;3.97;1.50;;;;;;;;;;5076759;28;20204;-67
2021/04/11 07:26:33;;;;;;;4.77;1.57;;;;;;;;;;5081700;28;20590;-66
2021/04/11 07:29:07;;;;;;;6.23;1.40;;;;;;;;;;5081508;28;20221;-67
2021/04/11 07:32:10;;;;;;;4.17;1.70;;;;;;;;;;5081055;28;20286;-66
2021/04/11 07:34:48;;;;;;;2.77;1.27;;;;;;;;;;5081322;28;20860;-67
2021/04/11 07:37:35;;;;;;;4.00;1.63;;;;;;;;;;5078823;28;20180;-67
2021/04/11 07:40:00;;;;;;;3.30;1.47;;;;;;;;;;5083468;28;20684;-68
2021/04/11 07:42:28;;;;;;;5.13;1.33;;;;;;;;;;5082852;28;20184;-68
2021/04/11 07:44:53;;;;;;;4.73;1.80;;;;;;;;;;5080961;28;20699;-67
2021/04/11 07:47:28;;;;;;;2.23;1.50;;;;;;;;;;5079910;28;20172;-67
2021/04/11 07:50:08;;;;;;;4.03;1.37;;;;;;;;;;5082677;28;20225;-67
2021/04/11 07:52:39;;;;;;;6.00;1.23;;;;;;;;;;5081342;28;20176;-66
2021/04/11 07:55:23;;;;;;;3.23;1.00;;;;;;;;;;5085348;28;20180;-67
2021/04/11 07:58:02;;;;;;;3.07;1.37;;;;;;;;;;5082524;28;20267;-67
2021/04/11 08:00:40;;;;;;;3.63;1.10;;;;;;;;;;5081993;28;21004;-66
2021/04/11 08:03:16;;;;;;;5.40;1.80;;;;;;;;;;5079946;28;20175;-66
2021/04/11 08:05:41;;;;;;;1.70;0.90;;;;;;;;;;5079958;28;20185;-67
2021/04/11 08:08:15;;;;;;;2.40;1.30;;;;;;;;;;5078072;28;20164;-65
2021/04/11 08:11:13;;;;;;;2.87;0.87;;;;;;;;;;5080547;28;20192;-66
2021/04/11 08:13:52;;;;;;;1.50;1.00;;;;;;;;;;5077433;28;20620;-67
2021/04/11 08:16:39;;;;;;;3.53;1.00;;;;;;;;;;5082475;28;20180;-65
2021/04/11 08:19:22;;;;;;;2.27;1.00;;;;;;;;;;5079620;28;20643;-67
2021/04/11 08:21:54;;;;;;;1.60;0.90;;;;;;;;;;5081301;28;20819;-68
2021/04/11 08:24:45;;;;;;;3.87;1.30;;;;;;;;;;5085051;28;20196;-67
2021/04/11 08:27:29;;;;;;;2.57;1.00;;;;;;;;;;5078711;28;20165;-67
2021/04/11 08:30:05;;;;;;;2.93;0.80;;;;;;;;;;5079095;28;20191;-67
2021/04/11 08:32:53;;;;;;;2.70;1.10;;;;;;;;;;5078932;28;20191;-67
2021/04/11 08:35:31;;;;;;;2.70;0.90;;;;;;;;;;5079320;28;20208;-67
2021/04/11 08:37:56;;;;;;;2.80;1.00;;;;;;;;;;5080756;28;20218;-67
2021/04/11 08:40:21;;;;;;;4.00;1.00;;;;;;;;;;5080686;28;20871;-66
2021/04/11 08:42:49;;;;;;;4.40;0.80;;;;;;;;;;5078359;28;20195;-68
2021/04/11 08:45:23;;;;;;;2.70;1.00;;;;;;;;;;5080712;28;20204;-67
2021/04/11 08:47:57;;;;;;;3.30;1.10;;;;;;;;;;5086184;28;20188;-67
2021/04/11 08:50:33;;;;;;;2.63;1.00;;;;;;;;;;5084321;28;20676;-67
2021/04/11 08:53:28;;;;;;;4.13;1.13;;;;;;;;;;5079257;28;20264;-68
2021/04/11 08:56:06;;;;;;;4.27;1.10;;;;;;;;;;5078772;28;20571;-66
2021/04/11 08:58:31;;;;;;;1.80;0.70;;;;;;;;;;5088815;28;20645;-68
2021/04/11 09:00:59;;;;;;;1.90;0.70;;;;;;;;;;5082437;28;20203;-68
2021/04/11 09:03:43;;;;;;;1.57;1.00;;;;;;;;;;5083455;28;20199;-67
2021/04/11 09:06:23;;;;;;;1.30;0.80;;;;;;;;;;5078523;28;20565;-68
2021/04/11 09:09:02;;;;;;;2.40;1.23;;;;;;;;;;5081112;28;20188;-67
2021/04/11 09:11:29;;;;;;;2.93;0.97;;;;;;;;;;5079194;28;20196;-68
2021/04/11 09:13:59;;;;;;;1.07;0.67;;;;;;;;;;5078840;28;20292;-68
2021/04/11 09:16:36;;;;;;;2.97;1.30;;;;;;;;;;5084025;28;20213;-68
2021/04/11 09:19:01;;;;;;;3.37;0.87;;;;;;;;;;5081208;28;20172;-68
2021/04/11 09:21:46;;;;;;;2.23;1.00;;;;;;;;;;5085519;28;20203;-66
2021/04/11 09:24:30;;;;;;;4.17;0.80;;;;;;;;;;5079087;28;20234;-66
2021/04/11 09:27:04;;;;;;;2.87;0.90;;;;;;;;;;5065560;28;20248;-66
2021/04/11 09:29:32;;;;;;;4.20;1.03;;;;;;;;;;5068666;28;20165;-67
2021/04/11 09:32:16;;;;;;;3.27;1.03;;;;;;;;;;5067427;28;20192;-68
2021/04/11 09:34:50;;;;;;;3.30;1.20;;;;;;;;;;5064050;28;20417;-67
2021/04/11 09:37:34;;;;;;;1.70;0.80;;;;;;;;;;5067972;28;20181;-68
2021/04/11 09:40:10;;;;;;;0.80;0.60;;;;;;;;;;5067197;28;20524;-68
2021/04/11 09:42:48;;;;;;;1.73;1.00;;;;;;;;;;5063294;28;20688;-67
2021/04/11 09:45:19;;;;;;;4.77;1.23;;;;;;;;;;5064913;28;20747;-67
2021/04/11 09:47:57;;;;;;;4.20;1.20;;;;;;;;;;5064175;28;20181;-66
2021/04/11 09:50:45;;;;;;;1.40;0.77;;;;;;;;;;5065323;28;20726;-68
2021/04/11 09:53:25;;;;;;;0.70;0.70;;;;;;;;;;5064188;28;20176;-67
2021/04/11 09:56:00;;;;;;;2.07;0.90;;;;;;;;;;5066549;28;20668;-67
2021/04/11 09:58:28;;;;;;;1.50;1.10;;;;;;;;;;5063097;28;20264;-67
2021/04/11 10:01:20;;;;;;;2.87;1.00;;;;;;;;;;5063824;28;20273;-66
2021/04/11 10:04:00;;;;;;;2.93;1.53;;;;;;;;;;5067518;28;20418;-66
2021/04/11 10:06:54;;;;;;;1.97;0.90;;;;;;;;;;5067473;28;20176;-67
2021/04/11 10:09:25;;;;;;;2.93;1.13;;;;;;;;;;5062955;28;20185;-67
2021/04/11 10:11:59;;;;;;;5.50;1.17;;;;;;;;;;5063663;28;20267;-65
2021/04/11 10:14:43;;;;;;;3.07;1.13;;;;;;;;;;5064865;28;20238;-67
2021/04/11 10:17:27;;;;;;;2.57;1.17;;;;;;;;;;5065201;28;20534;-67
2021/04/11 10:20:11;;;;;;;2.43;1.00;;;;;;;;;;5070851;28;20277;-68
2021/04/11 10:22:44;;;;;;;2.80;1.00;;;;;;;;;;5065877;28;20179;-65
2021/04/11 10:25:12;;;;;;;1.67;1.33;;;;;;;;;;5064217;28;20228;-67
2021/04/11 10:27:44;;;;;;;1.63;0.97;;;;;;;;;;5064525;28;20169;-68
2021/04/11 10:30:11;;;;;;;2.10;1.20;;;;;;;;;;5064997;28;20261;-67
2021/04/11 10:32:51;;;;;;;3.07;1.10;;;;;;;;;;5064994;28;20183;-66
2021/04/11 10:35:29;;;;;;;1.53;0.90;;;;;;;;;;5063647;28;20192;-67
2021/04/11 10:37:56;;;;;;;3.70;1.07;;;;;;;;;;5064237;28;20176;-66
2021/04/11 10:40:40;;;;;;;4.60;1.60;;;;;;;;;;5067010;28;20723;-67
2021/04/11 10:43:24;;;;;;;3.40;0.90;;;;;;;;;;5066207;28;20208;-66
2021/04/11 10:45:57;;;;;;;2.97;0.80;;;;;;;;;;5063065;28;20196;-66
2021/04/11 10:48:28;;;;;;;2.53;1.17;;;;;;;;;;5062960;28;20177;-65
2021/04/11 10:50:53;;;;;;;2.00;0.97;;;;;;;;;;5069741;28;20193;-66
2021/04/11 10:53:32;;;;;;;1.10;0.90;;;;;;;;;;5062724;28;20913;-68
2021/04/11 10:56:03;;;;;;;1.63;0.80;;;;;;;;;;5063622;28;20546;-65
2021/04/11 10:58:44;;;;;;;1.83;0.90;;;;;;;;;;5062275;28;20646;-67
2021/04/11 11:01:09;;;;;;;1.23;0.50;;;;;;;;;;5066015;28;20250;-68
2021/04/11 11:03:48;;;;;;;3.53;1.33;;;;;;;;;;5067037;28;20983;-65
2021/04/11 11:06:28;;;;;;;1.70;0.70;;;;;;;;;;5065956;28;20613;-66
2021/04/11 11:09:12;;;;;;;1.23;0.80;;;;;;;;;;5063495;28;20650;-67
2021/04/11 11:11:45;;;;;;;1.47;0.70;;;;;;;;;;5069682;28;20627;-67
2021/04/11 11:14:13;;;;;;;4.43;1.10;;;;;;;;;;5063520;28;20275;-66
2021/04/11 11:16:57;;;;;;;1.00;0.90;;;;;;;;;;5062071;28;20235;-67
2021/04/11 11:19:34;;;;;;;1.13;0.97;;;;;;;;;;5063306;28;20181;-65
2021/04/11 11:21:59;;;;;;;2.53;0.80;;;;;;;;;;5065757;28;20192;-66
2021/04/11 11:24:33;;;;;;;3.33;0.90;;;;;;;;;;5060079;28;20196;-66
2021/04/11 11:27:17;;;;;;;1.00;0.60;;;;;;;;;;5064488;28;20181;-65
2021/04/11 11:29:51;;;;;;;1.83;0.87;;;;;;;;;;5060776;28;20690;-66
2021/04/11 11:32:20;;;;;;;1.63;1.10;;;;;;;;;;5064828;28;20203;-68
2021/04/11 11:34:48;;;;;;;3.00;0.80;;;;;;;;;;5062788;28;20326;-66
2021/04/11 11:37:32;;;;;;;2.60;0.60;;;;;;;;;;5063751;28;20202;-68
2021/04/11 11:40:16;;;;;;;0.80;0.60;;;;;;;;;;5062212;28;20181;-67
2021/04/11 11:42:53;;;;;;;4.20;0.93;;;;;;;;;;5063039;28;20184;-65
2021/04/11 11:45:35;;;;;;;0.90;0.60;;;;;;;;;;5062378;28;20200;-67
2021/04/11 11:48:07;;;;;;;1.20;0.70;;;;;;;;;;5066422;28;20276;-67
2021/04/11 11:50:38;;;;;;;2.40;1.00;;;;;;;;;;5065890;28;20200;-66
2021/04/11 11:53:06;;;;;;;2.13;0.63;;;;;;;;;;5062919;28;20614;-67
2021/04/11 11:55:34;;;;;;;1.57;0.67;;;;;;;;;;5063240;28;20321;-64
2021/04/11 11:58:18;;;;;;;1.53;0.60;;;;;;;;;;5063083;28;20191;-66
2021/04/11 12:00:45;;;;;;;2.10;1.00;;;;;;;;;;5066675;28;20690;-67
2021/04/11 12:03:20;;;;;;;2.40;0.60;;;;;;;;;;5061415;28;20185;-64
2021/04/11 12:05:55;;;;;;;3.40;0.70;;;;;;;;;;5063923;28;20200;-67
2021/04/11 12:08:26;;;;;;;1.70;0.60;;;;;;;;;;5061573;28;20233;-66
2021/04/11 12:11:12;;;;;;;1.47;0.60;;;;;;;;;;5062581;28;20224;-66
2021/04/11 12:13:52;;;;;;;3.53;0.70;;;;;;;;;;5068988;28;20173;-66
2021/04/11 12:16:23;;;;;;;1.57;0.60;;;;;;;;;;5074800;28;20188;-67
2021/04/11 12:18:54;;;;;;;2.30;0.60;;;;;;;;;;5061790;28;20681;-66
2021/04/11 12:21:25;;;;;;;1.53;0.50;;;;;;;;;;5064221;28;20684;-67
2021/04/11 12:23:57;;;;;;;0.90;0.50;;;;;;;;;;5064565;28;20722;-66
2021/04/11 12:26:23;;;;;;;1.80;0.83;;;;;;;;;;5072558;28;20180;-68
2021/04/11 12:28:49;;;;;;;2.10;0.80;;;;;;;;;;5066234;28;20289;-68
2021/04/11 12:31:31;;;;;;;1.57;0.90;;;;;;;;;;5070373;28;20265;-67
2021/04/11 12:33:57;;;;;;;3.00;0.67;;;;;;;;;;5064649;28;20332;-65
2021/04/11 12:36:29;;;;;;;1.73;0.97;;;;;;;;;;5065138;28;20683;-67
2021/04/11 12:38:56;;;;;;;1.63;0.60;;;;;;;;;;5061763;28;20420;-68
2021/04/11 12:41:22;;;;;;;1.77;0.70;;;;;;;;;;5071662;28;20204;-65
2021/04/11 12:44:13;;;;;;;3.77;0.80;;;;;;;;;;5065573;28;20614;-66
2021/04/11 12:46:57;;;;;;;2.37;0.97;;;;;;;;;;5068384;28;20242;-67
2021/04/11 12:49:41;;;;;;;2.13;0.83;;;;;;;;;;5064838;28;20176;-65
2021/04/11 12:52:09;;;;;;;1.45;0.73;;;;;;;;;;5070484;28;20197;-70
2021/04/11 12:54:37;;;;;;;1.83;0.70;;;;;;;;;;5067231;28;20579;-66
2021/04/11 12:57:05;;;;;;;2.23;0.67;;;;;;;;;;5064307;28;20181;-66
2021/04/11 12:59:36;;;;;;;2.00;0.67;;;;;;;;;;5065581;28;20219;-65
2021/04/11 13:02:21;;;;;;;1.43;0.70;;;;;;;;;;5074573;28;20215;-64
2021/04/11 13:04:49;;;;;;;3.20;0.90;;;;;;;;;;5065954;28;20685;-65
2021/04/11 13:07:20;;;;;;;1.80;0.63;;;;;;;;;;5072000;28;20553;-65
2021/04/11 13:09:51;;;;;;;1.90;0.50;;;;;;;;;;5064308;28;20168;-67
2021/04/11 13:12:23;;;;;;;1.57;0.83;;;;;;;;;;5067579;28;20193;-67
2021/04/11 13:14:58;;;;;;;1.83;0.80;;;;;;;;;;5066122;28;20737;-67
2021/04/11 13:17:23;;;;;;;2.03;1.10;;;;;;;;;;5067907;28;20550;-67
2021/04/11 13:19:56;;;;;;;4.63;1.00;;;;;;;;;;5064237;28;20184;-67
2021/04/11 13:22:40;;;;;;;2.03;0.50;;;;;;;;;;5062860;28;20451;-66
2021/04/11 13:25:08;;;;;;;3.30;0.87;;;;;;;;;;5064567;28;21038;-67
2021/04/11 13:27:33;;;;;;;2.23;0.70;;;;;;;;;;5066926;28;20200;-67
2021/04/11 13:30:01;;;;;;;3.93;1.10;;;;;;;;;;5064383;28;20275;-66
2021/04/11 13:32:45;;;;;;;2.80;0.88;;;;;;;;;;5068128;28;20172;-66
2021/04/11 13:35:19;;;;;;;1.87;0.77;;;;;;;;;;5066339;28;20203;-67
2021/04/11 13:37:50;;;;;;;1.23;0.70;;;;;;;;;;5066583;28;20176;-65
2021/04/11 13:40:18;;;;;;;1.00;0.63;;;;;;;;;;5072351;28;20229;-67
2021/04/11 13:42:53;;;;;;;3.73;0.90;;;;;;;;;;5069334;28;20204;-67
2021/04/11 13:45:26;;;;;;;2.30;0.83;;;;;;;;;;5064392;28;20204;-67
2021/04/11 13:48:07;;;;;;;3.17;1.00;;;;;;;;;;5066102;28;20276;-66
2021/04/11 13:50:51;;;;;;;2.10;1.07;;;;;;;;;;5066893;28;20693;-66
2021/04/11 13:53:28;;;;;;;1.47;0.87;;;;;;;;;;5065586;28;20181;-66
2021/04/11 13:55:53;;;;;;;1.73;1.00;;;;;;;;;;5068208;28;20177;-67
2021/04/11 13:58:45;;;;;;;3.00;0.70;;;;;;;;;;5067866;28;20196;-67
2021/04/11 14:01:18;;;;;;;3.50;0.73;;;;;;;;;;5067742;28;20448;-67
2021/04/11 14:03:49;;;;;;;3.30;0.90;;;;;;;;;;5069426;28;20230;-66
2021/04/11 14:06:14;;;;;;;3.57;0.77;;;;;;;;;;5066867;28;20188;-67
2021/04/11 14:08:58;;;;;;;1.23;0.70;;;;;;;;;;5073647;28;20643;-68
2021/04/11 14:11:41;;;;;;;2.20;1.00;;;;;;;;;;5062630;28;20199;-67
2021/04/11 14:14:14;;;;;;;3.27;1.23;;;;;;;;;;5063077;28;20290;-68
2021/04/11 14:16:44;;;;;;;1.77;1.23;;;;;;;;;;5063896;28;20310;-66
2021/04/11 14:19:26;;;;;;;1.03;0.90;;;;;;;;;;5063452;28;20662;-67
2021/04/11 14:22:04;;;;;;;4.57;1.03;;;;;;;;;;5064434;28;20875;-66
2021/04/11 14:24:38;;;;;;;1.87;0.97;;;;;;;;;;5062117;28;20207;-65
2021/04/11 14:27:04;;;;;;;5.07;1.13;;;;;;;;;;5068390;28;20270;-67
2021/04/11 14:29:32;;;;;;;1.87;0.80;;;;;;;;;;5069208;28;20684;-67
2021/04/11 14:32:03;;;;;;;1.87;1.00;;;;;;;;;;5063418;28;20200;-67
2021/04/11 14:34:47;;;;;;;3.13;0.80;;;;;;;;;;5064368;28;20223;-68
2021/04/11 14:37:30;;;;;;;2.70;1.10;;;;;;;;;;5065440;28;20180;-67
2021/04/11 14:40:11;;;;;;;3.33;0.80;;;;;;;;;;5063723;28;20506;-67
2021/04/11 14:42:39;;;;;;;2.03;0.90;;;;;;;;;;5065036;28;20180;-67
2021/04/11 14:45:04;;;;;;;2.20;0.97;;;;;;;;;;5062551;28;20239;-68
2021/04/11 14:47:48;;;;;;;3.20;1.00;;;;;;;;;;5065433;28;20234;-66
2021/04/11 14:50:22;;;;;;;1.90;1.00;;;;;;;;;;5063637;28;20469;-67
2021/04/11 14:52:52;;;;;;;2.57;1.07;;;;;;;;;;5064882;28;20184;-66
2021/04/11 14:55:22;;;;;;;2.27;1.00;;;;;;;;;;5065783;28;20180;-68
2021/04/11 14:57:55;;;;;;;2.70;0.83;;;;;;;;;;5068448;28;20181;-67
2021/04/11 15:00:40;;;;;;;3.43;0.93;;;;;;;;;;5064812;28;20205;-67
2021/04/11 15:03:19;;;;;;;2.20;0.80;;;;;;;;;;5062909;28;20196;-67
2021/04/11 15:05:47;;;;;;;1.67;0.90;;;;;;;;;;5076377;28;20834;-67
2021/04/11 15:08:17;;;;;;;4.57;1.10;;;;;;;;;;5072393;28;20172;-68
2021/04/11 15:11:15;;;;;;;2.63;0.80;;;;;;;;;;5064974;28;20196;-68
2021/04/11 15:13:49;;;;;;;2.73;0.90;;;;;;;;;;5050961;28;20188;-66
2021/04/11 15:16:38;;;;;;;1.53;0.60;;;;;;;;;;5065817;28;20180;-67